sensor_id;sensor_type;location;lat;lon;timestamp;P1;durP1;ratioP1;P2;durP2;ratioP2
14191;SDS011;7177;48.572;7.838;2023-03-01T00:01:06;19.77;;;15.50;;
14191;SDS011;7177;48.572;7.838;2023-03-01T00:03:34;21.05;;;16.08;;
14191;SDS011;7177;48.572;7.838;2023-03-01T00:05:59;19.57;;;14.73;;
14191;SDS011;7177;48.572;7.838;2023-03-01T00:08:25;19.83;;;14.77;;
14191;SDS011;7177;48.572;7.838;2023-03-01T00:13:28;18.73;;;15.15;;
14191;SDS011;7177;48.572;7.838;2023-03-01T00:15:53;18.90;;;13.77;;
14191;SDS011;7177;48.572;7.838;2023-03-01T00:18:19;19.53;;;15.20;;
14191;SDS011;7177;48.572;7.838;2023-03-01T00:20:54;38.90;;;21.33;;
14191;SDS011;7177;48.572;7.838;2023-03-01T00:23:21;28.20;;;17.65;;
14191;SDS011;7177;48.572;7.838;2023-03-01T00:25:47;43.83;;;24.23;;
14191;SDS011;7177;48.572;7.838;2023-03-01T00:28:14;37.75;;;21.70;;
14191;SDS011;7177;48.572;7.838;2023-03-01T00:30:39;37.50;;;19.47;;
14191;SDS011;7177;48.572;7.838;2023-03-01T00:33:05;25.67;;;17.77;;
14191;SDS011;7177;48.572;7.838;2023-03-01T00:35:32;21.97;;;16.07;;
14191;SDS011;7177;48.572;7.838;2023-03-01T00:37:58;20.33;;;15.95;;
14191;SDS011;7177;48.572;7.838;2023-03-01T00:40:23;22.53;;;16.33;;
14191;SDS011;7177;48.572;7.838;2023-03-01T00:42:49;19.88;;;15.95;;
14191;SDS011;7177;48.572;7.838;2023-03-01T00:45:15;20.07;;;15.10;;
14191;SDS011;7177;48.572;7.838;2023-03-01T00:47:41;19.73;;;15.43;;
14191;SDS011;7177;48.572;7.838;2023-03-01T00:50:07;19.40;;;14.67;;
14191;SDS011;7177;48.572;7.838;2023-03-01T00:52:33;18.95;;;14.35;;
14191;SDS011;7177;48.572;7.838;2023-03-01T00:54:58;20.97;;;15.43;;
14191;SDS011;7177;48.572;7.838;2023-03-01T00:57:24;19.37;;;15.13;;
14191;SDS011;7177;48.572;7.838;2023-03-01T00:59:49;20.87;;;16.13;;
14191;SDS011;7177;48.572;7.838;2023-03-01T01:02:17;22.95;;;16.42;;
14191;SDS011;7177;48.572;7.838;2023-03-01T01:04:43;20.23;;;15.45;;
14191;SDS011;7177;48.572;7.838;2023-03-01T01:07:09;22.10;;;16.47;;
14191;SDS011;7177;48.572;7.838;2023-03-01T01:09:35;20.33;;;15.47;;
14191;SDS011;7177;48.572;7.838;2023-03-01T01:12:01;22.45;;;15.63;;
14191;SDS011;7177;48.572;7.838;2023-03-01T01:14:27;21.65;;;16.55;;
14191;SDS011;7177;48.572;7.838;2023-03-01T01:16:53;23.10;;;16.67;;
14191;SDS011;7177;48.572;7.838;2023-03-01T01:19:19;21.63;;;16.20;;
14191;SDS011;7177;48.572;7.838;2023-03-01T01:21:46;21.38;;;16.15;;
14191;SDS011;7177;48.572;7.838;2023-03-01T01:24:12;20.65;;;15.43;;
14191;SDS011;7177;48.572;7.838;2023-03-01T01:26:39;21.05;;;15.52;;
14191;SDS011;7177;48.572;7.838;2023-03-01T01:29:04;21.50;;;15.43;;
14191;SDS011;7177;48.572;7.838;2023-03-01T01:31:31;24.60;;;16.65;;
14191;SDS011;7177;48.572;7.838;2023-03-01T01:33:58;20.48;;;15.15;;
14191;SDS011;7177;48.572;7.838;2023-03-01T01:36:24;23.27;;;15.80;;
14191;SDS011;7177;48.572;7.838;2023-03-01T01:38:50;20.30;;;14.93;;
14191;SDS011;7177;48.572;7.838;2023-03-01T01:41:16;20.20;;;15.57;;
14191;SDS011;7177;48.572;7.838;2023-03-01T01:43:46;21.33;;;15.25;;
14191;SDS011;7177;48.572;7.838;2023-03-01T01:46:33;21.35;;;15.85;;
14191;SDS011;7177;48.572;7.838;2023-03-01T01:49:07;21.45;;;16.50;;
14191;SDS011;7177;48.572;7.838;2023-03-01T01:51:42;23.20;;;16.60;;
14191;SDS011;7177;48.572;7.838;2023-03-01T01:54:18;21.45;;;15.75;;
14191;SDS011;7177;48.572;7.838;2023-03-01T01:56:50;22.40;;;16.80;;
14191;SDS011;7177;48.572;7.838;2023-03-01T01:59:19;21.85;;;16.30;;
14191;SDS011;7177;48.572;7.838;2023-03-01T02:01:49;23.13;;;16.35;;
14191;SDS011;7177;48.572;7.838;2023-03-01T02:04:16;20.40;;;15.90;;
14191;SDS011;7177;48.572;7.838;2023-03-01T02:06:44;23.20;;;15.27;;
14191;SDS011;7177;48.572;7.838;2023-03-01T02:09:16;23.40;;;15.32;;
14191;SDS011;7177;48.572;7.838;2023-03-01T02:11:46;22.02;;;16.20;;
14191;SDS011;7177;48.572;7.838;2023-03-01T02:14:12;22.58;;;15.98;;
14191;SDS011;7177;48.572;7.838;2023-03-01T02:16:39;18.35;;;15.18;;
14191;SDS011;7177;48.572;7.838;2023-03-01T02:19:06;23.10;;;17.13;;
14191;SDS011;7177;48.572;7.838;2023-03-01T02:21:47;24.77;;;17.20;;
14191;SDS011;7177;48.572;7.838;2023-03-01T02:27:04;22.65;;;16.75;;
14191;SDS011;7177;48.572;7.838;2023-03-01T02:29:30;23.53;;;16.60;;
14191;SDS011;7177;48.572;7.838;2023-03-01T02:31:56;22.80;;;16.33;;
14191;SDS011;7177;48.572;7.838;2023-03-01T02:34:24;23.35;;;16.33;;
14191;SDS011;7177;48.572;7.838;2023-03-01T02:36:53;23.45;;;16.40;;
14191;SDS011;7177;48.572;7.838;2023-03-01T02:39:24;23.90;;;16.20;;
14191;SDS011;7177;48.572;7.838;2023-03-01T02:41:53;23.45;;;16.55;;
14191;SDS011;7177;48.572;7.838;2023-03-01T02:44:21;23.92;;;16.42;;
14191;SDS011;7177;48.572;7.838;2023-03-01T02:46:48;24.35;;;17.17;;
14191;SDS011;7177;48.572;7.838;2023-03-01T02:49:20;22.95;;;17.33;;
14191;SDS011;7177;48.572;7.838;2023-03-01T02:55:24;26.33;;;19.08;;
14191;SDS011;7177;48.572;7.838;2023-03-01T02:57:20;29.05;;;17.45;;
14191;SDS011;7177;48.572;7.838;2023-03-01T02:59:48;25.35;;;17.65;;
14191;SDS011;7177;48.572;7.838;2023-03-01T03:02:23;26.40;;;18.20;;
14191;SDS011;7177;48.572;7.838;2023-03-01T03:05:01;26.70;;;17.98;;
14191;SDS011;7177;48.572;7.838;2023-03-01T03:07:38;23.38;;;17.30;;
14191;SDS011;7177;48.572;7.838;2023-03-01T03:10:06;27.70;;;18.45;;
14191;SDS011;7177;48.572;7.838;2023-03-01T03:12:33;24.77;;;17.42;;
14191;SDS011;7177;48.572;7.838;2023-03-01T03:14:58;27.60;;;16.77;;
14191;SDS011;7177;48.572;7.838;2023-03-01T03:17:24;24.77;;;17.87;;
14191;SDS011;7177;48.572;7.838;2023-03-01T03:19:49;22.53;;;17.23;;
14191;SDS011;7177;48.572;7.838;2023-03-01T03:22:15;24.80;;;18.03;;
14191;SDS011;7177;48.572;7.838;2023-03-01T03:24:40;23.37;;;16.67;;
14191;SDS011;7177;48.572;7.838;2023-03-01T03:27:07;24.80;;;16.33;;
14191;SDS011;7177;48.572;7.838;2023-03-01T03:29:32;24.15;;;18.58;;
14191;SDS011;7177;48.572;7.838;2023-03-01T03:31:58;21.52;;;16.13;;
14191;SDS011;7177;48.572;7.838;2023-03-01T03:34:24;25.63;;;17.37;;
14191;SDS011;7177;48.572;7.838;2023-03-01T03:36:53;22.47;;;16.13;;
14191;SDS011;7177;48.572;7.838;2023-03-01T03:39:24;21.98;;;15.80;;
14191;SDS011;7177;48.572;7.838;2023-03-01T03:41:51;23.80;;;16.17;;
14191;SDS011;7177;48.572;7.838;2023-03-01T03:44:18;23.17;;;17.35;;
14191;SDS011;7177;48.572;7.838;2023-03-01T03:46:44;20.85;;;15.00;;
14191;SDS011;7177;48.572;7.838;2023-03-01T03:49:09;23.37;;;16.33;;
14191;SDS011;7177;48.572;7.838;2023-03-01T03:51:35;24.53;;;17.50;;
14191;SDS011;7177;48.572;7.838;2023-03-01T03:54:00;25.47;;;16.93;;
14191;SDS011;7177;48.572;7.838;2023-03-01T03:56:26;24.20;;;17.90;;
14191;SDS011;7177;48.572;7.838;2023-03-01T03:58:52;25.63;;;18.07;;
14191;SDS011;7177;48.572;7.838;2023-03-01T04:01:17;22.67;;;17.43;;
14191;SDS011;7177;48.572;7.838;2023-03-01T04:03:43;23.90;;;16.73;;
14191;SDS011;7177;48.572;7.838;2023-03-01T04:06:12;24.88;;;16.65;;
14191;SDS011;7177;48.572;7.838;2023-03-01T04:08:39;23.92;;;16.27;;
14191;SDS011;7177;48.572;7.838;2023-03-01T04:11:05;23.33;;;16.63;;
14191;SDS011;7177;48.572;7.838;2023-03-01T04:13:50;24.08;;;17.80;;
14191;SDS011;7177;48.572;7.838;2023-03-01T04:16:17;23.88;;;17.23;;
14191;SDS011;7177;48.572;7.838;2023-03-01T04:18:42;24.27;;;18.23;;
14191;SDS011;7177;48.572;7.838;2023-03-01T04:21:08;25.60;;;18.17;;
14191;SDS011;7177;48.572;7.838;2023-03-01T04:23:35;26.42;;;17.45;;
14191;SDS011;7177;48.572;7.838;2023-03-01T04:26:00;24.93;;;17.73;;
14191;SDS011;7177;48.572;7.838;2023-03-01T04:28:28;23.73;;;17.00;;
14191;SDS011;7177;48.572;7.838;2023-03-01T04:30:56;21.20;;;16.42;;
14191;SDS011;7177;48.572;7.838;2023-03-01T04:33:23;25.35;;;17.80;;
14191;SDS011;7177;48.572;7.838;2023-03-01T04:35:49;26.40;;;18.08;;
14191;SDS011;7177;48.572;7.838;2023-03-01T04:38:18;24.02;;;17.30;;
14191;SDS011;7177;48.572;7.838;2023-03-01T04:40:46;25.42;;;17.45;;
14191;SDS011;7177;48.572;7.838;2023-03-01T04:43:11;21.77;;;16.90;;
14191;SDS011;7177;48.572;7.838;2023-03-01T04:45:40;25.42;;;17.52;;
14191;SDS011;7177;48.572;7.838;2023-03-01T04:48:05;30.30;;;19.37;;
14191;SDS011;7177;48.572;7.838;2023-03-01T04:50:31;27.20;;;18.47;;
14191;SDS011;7177;48.572;7.838;2023-03-01T04:52:57;28.07;;;19.43;;
14191;SDS011;7177;48.572;7.838;2023-03-01T04:55:23;27.75;;;19.00;;
14191;SDS011;7177;48.572;7.838;2023-03-01T04:57:53;29.35;;;18.90;;
14191;SDS011;7177;48.572;7.838;2023-03-01T05:00:19;26.00;;;17.85;;
14191;SDS011;7177;48.572;7.838;2023-03-01T05:02:46;24.77;;;17.60;;
14191;SDS011;7177;48.572;7.838;2023-03-01T05:05:18;23.85;;;17.52;;
14191;SDS011;7177;48.572;7.838;2023-03-01T05:07:52;24.48;;;17.20;;
14191;SDS011;7177;48.572;7.838;2023-03-01T05:10:18;28.08;;;18.63;;
14191;SDS011;7177;48.572;7.838;2023-03-01T05:12:44;25.10;;;18.80;;
14191;SDS011;7177;48.572;7.838;2023-03-01T05:15:09;31.23;;;19.70;;
14191;SDS011;7177;48.572;7.838;2023-03-01T05:17:35;31.87;;;20.60;;
14191;SDS011;7177;48.572;7.838;2023-03-01T05:20:01;27.67;;;19.77;;
14191;SDS011;7177;48.572;7.838;2023-03-01T05:22:30;26.35;;;17.77;;
14191;SDS011;7177;48.572;7.838;2023-03-01T05:24:56;23.83;;;17.77;;
14191;SDS011;7177;48.572;7.838;2023-03-01T05:27:21;25.60;;;18.63;;
14191;SDS011;7177;48.572;7.838;2023-03-01T05:29:47;27.87;;;19.17;;
14191;SDS011;7177;48.572;7.838;2023-03-01T05:32:13;27.30;;;19.13;;
14191;SDS011;7177;48.572;7.838;2023-03-01T05:34:40;26.27;;;18.77;;
14191;SDS011;7177;48.572;7.838;2023-03-01T05:37:06;23.33;;;17.00;;
14191;SDS011;7177;48.572;7.838;2023-03-01T05:39:33;26.58;;;19.55;;
14191;SDS011;7177;48.572;7.838;2023-03-01T05:42:00;26.33;;;18.77;;
14191;SDS011;7177;48.572;7.838;2023-03-01T05:44:26;26.50;;;19.30;;
14191;SDS011;7177;48.572;7.838;2023-03-01T05:46:52;27.92;;;20.08;;
14191;SDS011;7177;48.572;7.838;2023-03-01T05:49:19;40.28;;;21.02;;
14191;SDS011;7177;48.572;7.838;2023-03-01T05:51:48;27.00;;;20.30;;
14191;SDS011;7177;48.572;7.838;2023-03-01T05:54:16;31.58;;;20.73;;
14191;SDS011;7177;48.572;7.838;2023-03-01T05:56:41;36.03;;;21.87;;
14191;SDS011;7177;48.572;7.838;2023-03-01T05:59:07;32.70;;;20.60;;
14191;SDS011;7177;48.572;7.838;2023-03-01T06:01:34;30.37;;;20.17;;
14191;SDS011;7177;48.572;7.838;2023-03-01T06:04:00;34.20;;;21.40;;
14191;SDS011;7177;48.572;7.838;2023-03-01T06:06:26;30.50;;;21.13;;
14191;SDS011;7177;48.572;7.838;2023-03-01T06:08:52;32.30;;;21.63;;
14191;SDS011;7177;48.572;7.838;2023-03-01T06:11:18;33.95;;;20.95;;
14191;SDS011;7177;48.572;7.838;2023-03-01T06:13:44;31.95;;;21.45;;
14191;SDS011;7177;48.572;7.838;2023-03-01T06:16:11;26.05;;;18.83;;
14191;SDS011;7177;48.572;7.838;2023-03-01T06:18:37;30.45;;;20.17;;
14191;SDS011;7177;48.572;7.838;2023-03-01T06:21:03;30.67;;;20.38;;
14191;SDS011;7177;48.572;7.838;2023-03-01T06:23:29;27.90;;;19.27;;
14191;SDS011;7177;48.572;7.838;2023-03-01T06:25:55;28.50;;;19.47;;
14191;SDS011;7177;48.572;7.838;2023-03-01T06:28:21;28.40;;;19.87;;
14191;SDS011;7177;48.572;7.838;2023-03-01T06:30:47;30.00;;;19.67;;
14191;SDS011;7177;48.572;7.838;2023-03-01T06:33:14;29.67;;;19.73;;
14191;SDS011;7177;48.572;7.838;2023-03-01T06:35:39;29.63;;;21.27;;
14191;SDS011;7177;48.572;7.838;2023-03-01T06:38:05;29.53;;;20.83;;
14191;SDS011;7177;48.572;7.838;2023-03-01T06:40:31;30.53;;;20.60;;
14191;SDS011;7177;48.572;7.838;2023-03-01T06:42:57;32.55;;;21.45;;
14191;SDS011;7177;48.572;7.838;2023-03-01T06:45:23;33.00;;;20.92;;
14191;SDS011;7177;48.572;7.838;2023-03-01T06:47:49;30.48;;;20.58;;
14191;SDS011;7177;48.572;7.838;2023-03-01T06:50:14;27.27;;;19.20;;
14191;SDS011;7177;48.572;7.838;2023-03-01T06:52:41;30.58;;;20.65;;
14191;SDS011;7177;48.572;7.838;2023-03-01T06:55:08;32.70;;;21.48;;
14191;SDS011;7177;48.572;7.838;2023-03-01T06:57:34;31.10;;;21.73;;
14191;SDS011;7177;48.572;7.838;2023-03-01T07:00:00;27.40;;;19.63;;
14191;SDS011;7177;48.572;7.838;2023-03-01T07:02:25;30.20;;;20.53;;
14191;SDS011;7177;48.572;7.838;2023-03-01T07:04:51;30.97;;;21.73;;
14191;SDS011;7177;48.572;7.838;2023-03-01T07:07:17;28.20;;;21.30;;
14191;SDS011;7177;48.572;7.838;2023-03-01T07:09:43;27.73;;;20.90;;
14191;SDS011;7177;48.572;7.838;2023-03-01T07:12:09;33.55;;;22.75;;
14191;SDS011;7177;48.572;7.838;2023-03-01T07:14:35;29.60;;;21.53;;
14191;SDS011;7177;48.572;7.838;2023-03-01T07:17:01;29.33;;;20.80;;
14191;SDS011;7177;48.572;7.838;2023-03-01T07:19:26;28.77;;;20.27;;
14191;SDS011;7177;48.572;7.838;2023-03-01T07:21:52;31.87;;;22.50;;
14191;SDS011;7177;48.572;7.838;2023-03-01T07:24:18;62.42;;;34.15;;
14191;SDS011;7177;48.572;7.838;2023-03-01T07:26:44;133.23;;;60.67;;
14191;SDS011;7177;48.572;7.838;2023-03-01T07:29:14;93.10;;;46.70;;
14191;SDS011;7177;48.572;7.838;2023-03-01T07:31:39;68.80;;;38.53;;
14191;SDS011;7177;48.572;7.838;2023-03-01T07:34:05;47.03;;;27.10;;
14191;SDS011;7177;48.572;7.838;2023-03-01T07:36:30;163.27;;;59.27;;
14191;SDS011;7177;48.572;7.838;2023-03-01T07:38:56;145.23;;;62.63;;
14191;SDS011;7177;48.572;7.838;2023-03-01T07:41:22;33.28;;;22.55;;
14191;SDS011;7177;48.572;7.838;2023-03-01T07:43:49;31.10;;;21.45;;
14191;SDS011;7177;48.572;7.838;2023-03-01T07:46:14;27.07;;;19.97;;
14191;SDS011;7177;48.572;7.838;2023-03-01T07:48:40;28.20;;;19.67;;
14191;SDS011;7177;48.572;7.838;2023-03-01T07:51:06;35.77;;;22.77;;
14191;SDS011;7177;48.572;7.838;2023-03-01T07:53:32;60.85;;;30.90;;
14191;SDS011;7177;48.572;7.838;2023-03-01T07:56:06;92.45;;;62.05;;
14191;SDS011;7177;48.572;7.838;2023-03-01T07:58:40;39.83;;;28.08;;
14191;SDS011;7177;48.572;7.838;2023-03-01T08:01:08;33.25;;;22.92;;
14191;SDS011;7177;48.572;7.838;2023-03-01T08:03:36;33.53;;;25.98;;
14191;SDS011;7177;48.572;7.838;2023-03-01T08:06:02;30.20;;;21.80;;
14191;SDS011;7177;48.572;7.838;2023-03-01T08:08:29;26.75;;;20.55;;
14191;SDS011;7177;48.572;7.838;2023-03-01T08:10:59;27.83;;;19.80;;
14191;SDS011;7177;48.572;7.838;2023-03-01T08:13:25;28.88;;;20.08;;
14191;SDS011;7177;48.572;7.838;2023-03-01T08:15:51;26.60;;;20.10;;
14191;SDS011;7177;48.572;7.838;2023-03-01T08:18:18;28.88;;;19.67;;
14191;SDS011;7177;48.572;7.838;2023-03-01T08:20:44;25.75;;;18.48;;
14191;SDS011;7177;48.572;7.838;2023-03-01T08:23:10;31.53;;;20.40;;
14191;SDS011;7177;48.572;7.838;2023-03-01T08:25:36;27.53;;;20.47;;
14191;SDS011;7177;48.572;7.838;2023-03-01T08:28:01;29.40;;;18.93;;
14191;SDS011;7177;48.572;7.838;2023-03-01T08:30:27;28.27;;;19.83;;
14191;SDS011;7177;48.572;7.838;2023-03-01T08:32:52;28.97;;;19.13;;
14191;SDS011;7177;48.572;7.838;2023-03-01T08:35:19;29.37;;;19.40;;
14191;SDS011;7177;48.572;7.838;2023-03-01T08:37:45;27.33;;;19.08;;
14191;SDS011;7177;48.572;7.838;2023-03-01T08:40:10;28.77;;;19.30;;
14191;SDS011;7177;48.572;7.838;2023-03-01T08:42:38;28.23;;;19.40;;
14191;SDS011;7177;48.572;7.838;2023-03-01T08:45:10;27.48;;;18.80;;
14191;SDS011;7177;48.572;7.838;2023-03-01T08:47:36;28.03;;;18.60;;
14191;SDS011;7177;48.572;7.838;2023-03-01T08:50:02;28.83;;;20.30;;
14191;SDS011;7177;48.572;7.838;2023-03-01T08:52:29;27.65;;;19.52;;
14191;SDS011;7177;48.572;7.838;2023-03-01T08:54:55;27.07;;;19.10;;
14191;SDS011;7177;48.572;7.838;2023-03-01T08:57:21;29.40;;;19.83;;
14191;SDS011;7177;48.572;7.838;2023-03-01T08:59:47;26.35;;;18.80;;
14191;SDS011;7177;48.572;7.838;2023-03-01T09:02:13;29.30;;;20.23;;
14191;SDS011;7177;48.572;7.838;2023-03-01T09:04:41;25.42;;;18.67;;
14191;SDS011;7177;48.572;7.838;2023-03-01T09:07:07;25.43;;;18.80;;
14191;SDS011;7177;48.572;7.838;2023-03-01T09:09:33;28.08;;;19.02;;
14191;SDS011;7177;48.572;7.838;2023-03-01T09:11:58;28.23;;;19.60;;
14191;SDS011;7177;48.572;7.838;2023-03-01T09:14:24;28.10;;;19.93;;
14191;SDS011;7177;48.572;7.838;2023-03-01T09:16:50;43.43;;;25.67;;
14191;SDS011;7177;48.572;7.838;2023-03-01T09:19:16;27.40;;;19.13;;
14191;SDS011;7177;48.572;7.838;2023-03-01T09:21:42;27.13;;;19.33;;
14191;SDS011;7177;48.572;7.838;2023-03-01T09:24:17;25.92;;;18.17;;
14191;SDS011;7177;48.572;7.838;2023-03-01T09:26:44;30.73;;;19.48;;
14191;SDS011;7177;48.572;7.838;2023-03-01T09:29:11;27.77;;;18.58;;
14191;SDS011;7177;48.572;7.838;2023-03-01T09:31:37;27.90;;;19.30;;
14191;SDS011;7177;48.572;7.838;2023-03-01T09:34:03;30.27;;;19.00;;
14191;SDS011;7177;48.572;7.838;2023-03-01T09:36:28;27.33;;;18.13;;
14191;SDS011;7177;48.572;7.838;2023-03-01T09:38:54;28.30;;;19.37;;
14191;SDS011;7177;48.572;7.838;2023-03-01T09:41:36;29.57;;;19.90;;
14191;SDS011;7177;48.572;7.838;2023-03-01T09:44:23;25.37;;;17.87;;
14191;SDS011;7177;48.572;7.838;2023-03-01T09:46:57;27.10;;;18.50;;
14191;SDS011;7177;48.572;7.838;2023-03-01T09:49:28;31.80;;;20.60;;
14191;SDS011;7177;48.572;7.838;2023-03-01T09:54:44;25.90;;;17.30;;
14191;SDS011;7177;48.572;7.838;2023-03-01T09:59:56;30.00;;;19.70;;
14191;SDS011;7177;48.572;7.838;2023-03-01T10:08:09;23.93;;;17.10;;
14191;SDS011;7177;48.572;7.838;2023-03-01T10:10:49;27.27;;;18.10;;
14191;SDS011;7177;48.572;7.838;2023-03-01T10:13:33;27.67;;;18.67;;
14191;SDS011;7177;48.572;7.838;2023-03-01T10:16:28;26.60;;;18.23;;
14191;SDS011;7177;48.572;7.838;2023-03-01T10:19:08;27.93;;;19.17;;
14191;SDS011;7177;48.572;7.838;2023-03-01T10:21:57;27.93;;;18.67;;
14191;SDS011;7177;48.572;7.838;2023-03-01T10:24:27;27.30;;;17.20;;
14191;SDS011;7177;48.572;7.838;2023-03-01T10:27:01;23.93;;;17.70;;
14191;SDS011;7177;48.572;7.838;2023-03-01T10:29:41;32.20;;;18.37;;
14191;SDS011;7177;48.572;7.838;2023-03-01T10:32:13;28.83;;;18.23;;
14191;SDS011;7177;48.572;7.838;2023-03-01T10:34:39;31.77;;;19.27;;
14191;SDS011;7177;48.572;7.838;2023-03-01T10:37:12;28.97;;;18.53;;
14191;SDS011;7177;48.572;7.838;2023-03-01T10:39:55;26.60;;;19.07;;
14191;SDS011;7177;48.572;7.838;2023-03-01T10:42:38;28.40;;;18.37;;
14191;SDS011;7177;48.572;7.838;2023-03-01T10:45:23;27.73;;;18.93;;
14191;SDS011;7177;48.572;7.838;2023-03-01T10:50:42;27.87;;;19.93;;
14191;SDS011;7177;48.572;7.838;2023-03-01T10:53:55;26.13;;;18.47;;
14191;SDS011;7177;48.572;7.838;2023-03-01T10:56:13;25.73;;;18.23;;
14191;SDS011;7177;48.572;7.838;2023-03-01T10:58:40;25.97;;;18.60;;
14191;SDS011;7177;48.572;7.838;2023-03-01T11:01:26;26.43;;;18.03;;
14191;SDS011;7177;48.572;7.838;2023-03-01T11:06:32;25.57;;;18.30;;
14191;SDS011;7177;48.572;7.838;2023-03-01T11:09:13;29.57;;;19.27;;
14191;SDS011;7177;48.572;7.838;2023-03-01T11:11:40;28.83;;;19.87;;
14191;SDS011;7177;48.572;7.838;2023-03-01T11:14:07;25.30;;;18.87;;
14191;SDS011;7177;48.572;7.838;2023-03-01T11:16:48;26.83;;;19.47;;
14191;SDS011;7177;48.572;7.838;2023-03-01T11:19:22;26.77;;;18.80;;
14191;SDS011;7177;48.572;7.838;2023-03-01T11:22:04;28.77;;;18.20;;
14191;SDS011;7177;48.572;7.838;2023-03-01T11:24:40;27.77;;;19.23;;
14191;SDS011;7177;48.572;7.838;2023-03-01T11:27:13;30.40;;;22.00;;
14191;SDS011;7177;48.572;7.838;2023-03-01T11:29:41;30.63;;;21.63;;
14191;SDS011;7177;48.572;7.838;2023-03-01T11:32:11;29.53;;;20.17;;
14191;SDS011;7177;48.572;7.838;2023-03-01T11:34:42;27.27;;;19.83;;
14191;SDS011;7177;48.572;7.838;2023-03-01T11:37:15;30.23;;;22.47;;
14191;SDS011;7177;48.572;7.838;2023-03-01T11:42:44;27.37;;;19.87;;
14191;SDS011;7177;48.572;7.838;2023-03-01T11:45:42;27.20;;;18.40;;
14191;SDS011;7177;48.572;7.838;2023-03-01T11:48:39;29.80;;;19.90;;
14191;SDS011;7177;48.572;7.838;2023-03-01T11:51:28;25.23;;;18.87;;
14191;SDS011;7177;48.572;7.838;2023-03-01T11:56:49;26.23;;;18.67;;
14191;SDS011;7177;48.572;7.838;2023-03-01T12:07:14;27.50;;;19.00;;
14191;SDS011;7177;48.572;7.838;2023-03-01T12:15:53;27.67;;;19.70;;
14191;SDS011;7177;48.572;7.838;2023-03-01T12:18:44;28.10;;;19.73;;
14191;SDS011;7177;48.572;7.838;2023-03-01T12:33:00;26.87;;;19.77;;
14191;SDS011;7177;48.572;7.838;2023-03-01T12:38:18;27.33;;;19.33;;
14191;SDS011;7177;48.572;7.838;2023-03-01T12:41:21;28.00;;;19.73;;
14191;SDS011;7177;48.572;7.838;2023-03-01T12:44:05;27.70;;;20.53;;
14191;SDS011;7177;48.572;7.838;2023-03-01T12:47:02;27.50;;;19.80;;
14191;SDS011;7177;48.572;7.838;2023-03-01T12:52:03;29.73;;;20.10;;
14191;SDS011;7177;48.572;7.838;2023-03-01T12:54:47;30.70;;;19.57;;
14191;SDS011;7177;48.572;7.838;2023-03-01T12:57:18;30.30;;;20.70;;
14191;SDS011;7177;48.572;7.838;2023-03-01T13:08:27;29.37;;;20.60;;
14191;SDS011;7177;48.572;7.838;2023-03-01T13:11:16;27.70;;;19.50;;
14191;SDS011;7177;48.572;7.838;2023-03-01T13:13:44;30.67;;;19.43;;
14191;SDS011;7177;48.572;7.838;2023-03-01T13:21:41;28.40;;;19.23;;
14191;SDS011;7177;48.572;7.838;2023-03-01T13:24:27;25.53;;;17.47;;
14191;SDS011;7177;48.572;7.838;2023-03-01T13:27:20;28.93;;;19.97;;
14191;SDS011;7177;48.572;7.838;2023-03-01T13:29:53;29.63;;;19.23;;
14191;SDS011;7177;48.572;7.838;2023-03-01T13:34:49;29.93;;;19.73;;
14191;SDS011;7177;48.572;7.838;2023-03-01T13:37:23;28.60;;;20.80;;
14191;SDS011;7177;48.572;7.838;2023-03-01T13:39:56;34.47;;;20.90;;
14191;SDS011;7177;48.572;7.838;2023-03-01T13:42:29;32.37;;;20.33;;
14191;SDS011;7177;48.572;7.838;2023-03-01T13:44:59;27.47;;;19.77;;
14191;SDS011;7177;48.572;7.838;2023-03-01T13:47:25;29.83;;;18.33;;
14191;SDS011;7177;48.572;7.838;2023-03-01T13:52:40;32.63;;;21.10;;
14191;SDS011;7177;48.572;7.838;2023-03-01T13:55:20;27.90;;;19.40;;
14191;SDS011;7177;48.572;7.838;2023-03-01T13:57:50;27.03;;;19.27;;
14191;SDS011;7177;48.572;7.838;2023-03-01T14:00:36;31.10;;;21.43;;
14191;SDS011;7177;48.572;7.838;2023-03-01T14:03:03;32.50;;;20.00;;
14191;SDS011;7177;48.572;7.838;2023-03-01T14:05:38;33.53;;;19.90;;
14191;SDS011;7177;48.572;7.838;2023-03-01T14:08:13;28.87;;;19.57;;
14191;SDS011;7177;48.572;7.838;2023-03-01T14:10:47;32.57;;;19.03;;
14191;SDS011;7177;48.572;7.838;2023-03-01T14:16:07;28.87;;;20.07;;
14191;SDS011;7177;48.572;7.838;2023-03-01T14:18:36;27.93;;;19.17;;
14191;SDS011;7177;48.572;7.838;2023-03-01T14:21:13;27.90;;;18.60;;
14191;SDS011;7177;48.572;7.838;2023-03-01T14:23:40;28.07;;;19.90;;
14191;SDS011;7177;48.572;7.838;2023-03-01T14:26:07;25.50;;;17.90;;
14191;SDS011;7177;48.572;7.838;2023-03-01T14:28:33;26.40;;;18.83;;
14191;SDS011;7177;48.572;7.838;2023-03-01T14:31:05;25.90;;;18.07;;
14191;SDS011;7177;48.572;7.838;2023-03-01T14:33:56;28.50;;;18.63;;
14191;SDS011;7177;48.572;7.838;2023-03-01T14:36:26;28.53;;;20.03;;
14191;SDS011;7177;48.572;7.838;2023-03-01T14:38:52;28.43;;;19.87;;
14191;SDS011;7177;48.572;7.838;2023-03-01T14:41:20;25.97;;;18.53;;
14191;SDS011;7177;48.572;7.838;2023-03-01T14:46:18;27.23;;;18.77;;
14191;SDS011;7177;48.572;7.838;2023-03-01T14:48:44;29.63;;;19.50;;
14191;SDS011;7177;48.572;7.838;2023-03-01T14:51:09;28.27;;;19.63;;
14191;SDS011;7177;48.572;7.838;2023-03-01T14:53:37;29.53;;;20.43;;
14191;SDS011;7177;48.572;7.838;2023-03-01T14:56:02;26.23;;;19.03;;
14191;SDS011;7177;48.572;7.838;2023-03-01T14:58:28;31.67;;;20.13;;
14191;SDS011;7177;48.572;7.838;2023-03-01T15:00:57;28.00;;;19.37;;
14191;SDS011;7177;48.572;7.838;2023-03-01T15:03:38;25.00;;;18.63;;
14191;SDS011;7177;48.572;7.838;2023-03-01T15:06:08;28.03;;;19.67;;
14191;SDS011;7177;48.572;7.838;2023-03-01T15:08:36;28.67;;;19.87;;
14191;SDS011;7177;48.572;7.838;2023-03-01T15:13:38;27.20;;;19.27;;
14191;SDS011;7177;48.572;7.838;2023-03-01T15:18:43;29.13;;;20.03;;
14191;SDS011;7177;48.572;7.838;2023-03-01T15:23:47;32.23;;;20.13;;
14191;SDS011;7177;48.572;7.838;2023-03-01T15:26:33;29.37;;;19.90;;
14191;SDS011;7177;48.572;7.838;2023-03-01T15:29:04;26.97;;;18.60;;
14191;SDS011;7177;48.572;7.838;2023-03-01T15:31:41;31.40;;;20.83;;
14191;SDS011;7177;48.572;7.838;2023-03-01T15:34:08;29.77;;;20.27;;
14191;SDS011;7177;48.572;7.838;2023-03-01T15:36:41;27.47;;;19.93;;
14191;SDS011;7177;48.572;7.838;2023-03-01T15:42:03;31.93;;;19.20;;
14191;SDS011;7177;48.572;7.838;2023-03-01T15:44:35;32.50;;;22.00;;
14191;SDS011;7177;48.572;7.838;2023-03-01T15:47:04;34.47;;;21.57;;
14191;SDS011;7177;48.572;7.838;2023-03-01T15:49:47;27.67;;;19.63;;
14191;SDS011;7177;48.572;7.838;2023-03-01T15:52:22;28.37;;;19.37;;
14191;SDS011;7177;48.572;7.838;2023-03-01T15:54:54;30.63;;;20.07;;
14191;SDS011;7177;48.572;7.838;2023-03-01T15:57:21;26.33;;;19.13;;
14191;SDS011;7177;48.572;7.838;2023-03-01T15:59:46;31.43;;;21.47;;
14191;SDS011;7177;48.572;7.838;2023-03-01T16:02:12;30.57;;;20.77;;
14191;SDS011;7177;48.572;7.838;2023-03-01T16:04:38;28.40;;;19.77;;
14191;SDS011;7177;48.572;7.838;2023-03-01T16:07:04;28.33;;;19.30;;
14191;SDS011;7177;48.572;7.838;2023-03-01T16:09:30;30.00;;;20.17;;
14191;SDS011;7177;48.572;7.838;2023-03-01T16:11:55;29.43;;;19.47;;
14191;SDS011;7177;48.572;7.838;2023-03-01T16:14:21;28.60;;;21.17;;
14191;SDS011;7177;48.572;7.838;2023-03-01T16:16:47;28.17;;;19.13;;
14191;SDS011;7177;48.572;7.838;2023-03-01T16:19:13;30.20;;;20.27;;
14191;SDS011;7177;48.572;7.838;2023-03-01T16:21:39;31.57;;;19.80;;
14191;SDS011;7177;48.572;7.838;2023-03-01T16:24:07;31.60;;;20.50;;